sensor_id;sensor_type;location;lat;lon;timestamp;temperature;humidity
35746;DHT22;21870;42.812;74.628;2023-10-19T00:01:16;13.40;99.90
35746;DHT22;21870;42.812;74.628;2023-10-19T00:03:43;13.30;99.90
35746;DHT22;21870;42.812;74.628;2023-10-19T00:06:10;13.30;99.90
35746;DHT22;21870;42.812;74.628;2023-10-19T00:08:37;13.40;99.90
35746;DHT22;21870;42.812;74.628;2023-10-19T00:11:07;13.50;99.90
35746;DHT22;21870;42.812;74.628;2023-10-19T00:13:35;13.60;99.90
35746;DHT22;21870;42.812;74.628;2023-10-19T00:16:01;13.60;99.90
35746;DHT22;21870;42.812;74.628;2023-10-19T00:18:33;13.60;99.90
35746;DHT22;21870;42.812;74.628;2023-10-19T00:21:00;13.70;99.90
35746;DHT22;21870;42.812;74.628;2023-10-19T00:23:45;13.50;99.90
35746;DHT22;21870;42.812;74.628;2023-10-19T00:26:15;13.20;99.90
35746;DHT22;21870;42.812;74.628;2023-10-19T00:28:48;13.20;99.90
35746;DHT22;21870;42.812;74.628;2023-10-19T00:31:28;13.30;99.90
35746;DHT22;21870;42.812;74.628;2023-10-19T00:33:54;13.30;99.90
35746;DHT22;21870;42.812;74.628;2023-10-19T00:36:22;13.60;99.90
35746;DHT22;21870;42.812;74.628;2023-10-19T00:38:48;13.60;99.90
35746;DHT22;21870;42.812;74.628;2023-10-19T00:41:15;13.70;99.90
35746;DHT22;21870;42.812;74.628;2023-10-19T00:44:00;13.80;99.90
35746;DHT22;21870;42.812;74.628;2023-10-19T00:46:33;13.90;99.90
35746;DHT22;21870;42.812;74.628;2023-10-19T00:49:09;14.00;99.90
35746;DHT22;21870;42.812;74.628;2023-10-19T00:54:48;14.10;99.90
35746;DHT22;21870;42.812;74.628;2023-10-19T00:57:18;13.90;99.90
35746;DHT22;21870;42.812;74.628;2023-10-19T00:59:58;13.90;99.90
35746;DHT22;21870;42.812;74.628;2023-10-19T01:02:48;13.90;99.90
35746;DHT22;21870;42.812;74.628;2023-10-19T01:05:17;13.90;99.90
35746;DHT22;21870;42.812;74.628;2023-10-19T01:07:47;14.00;99.90
35746;DHT22;21870;42.812;74.628;2023-10-19T01:10:22;14.00;99.90
35746;DHT22;21870;42.812;74.628;2023-10-19T01:12:49;14.10;99.90
35746;DHT22;21870;42.812;74.628;2023-10-19T01:15:20;14.10;99.90
35746;DHT22;21870;42.812;74.628;2023-10-19T01:18:02;14.10;99.90
35746;DHT22;21870;42.812;74.628;2023-10-19T01:20:31;14.10;99.90
35746;DHT22;21870;42.812;74.628;2023-10-19T01:23:08;14.20;99.90
35746;DHT22;21870;42.812;74.628;2023-10-19T01:25:49;14.20;99.90
35746;DHT22;21870;42.812;74.628;2023-10-19T01:28:16;14.30;99.90
35746;DHT22;21870;42.812;74.628;2023-10-19T01:30:43;14.20;99.90
35746;DHT22;21870;42.812;74.628;2023-10-19T01:33:20;14.30;99.90
35746;DHT22;21870;42.812;74.628;2023-10-19T01:35:50;14.30;99.90
35746;DHT22;21870;42.812;74.628;2023-10-19T01:38:34;14.30;99.90
35746;DHT22;21870;42.812;74.628;2023-10-19T01:41:02;14.40;99.90
35746;DHT22;21870;42.812;74.628;2023-10-19T01:43:31;14.40;99.90
35746;DHT22;21870;42.812;74.628;2023-10-19T01:46:01;14.40;99.90
35746;DHT22;21870;42.812;74.628;2023-10-19T01:48:31;14.40;99.90
35746;DHT22;21870;42.812;74.628;2023-10-19T01:51:05;14.40;99.90
35746;DHT22;21870;42.812;74.628;2023-10-19T01:53:32;14.50;99.90
35746;DHT22;21870;42.812;74.628;2023-10-19T01:55:59;14.40;99.90
35746;DHT22;21870;42.812;74.628;2023-10-19T01:58:25;14.30;99.90
35746;DHT22;21870;42.812;74.628;2023-10-19T02:00:54;14.50;99.90
35746;DHT22;21870;42.812;74.628;2023-10-19T02:03:22;14.40;99.90
35746;DHT22;21870;42.812;74.628;2023-10-19T02:05:59;14.60;99.90
35746;DHT22;21870;42.812;74.628;2023-10-19T02:08:27;14.70;99.90
35746;DHT22;21870;42.812;74.628;2023-10-19T02:10:53;14.60;99.90
35746;DHT22;21870;42.812;74.628;2023-10-19T02:13:22;14.70;99.90
35746;DHT22;21870;42.812;74.628;2023-10-19T02:15:49;14.60;99.90
35746;DHT22;21870;42.812;74.628;2023-10-19T02:18:17;14.60;99.90
35746;DHT22;21870;42.812;74.628;2023-10-19T02:20:43;14.70;99.90
35746;DHT22;21870;42.812;74.628;2023-10-19T02:23:14;14.70;99.90
35746;DHT22;21870;42.812;74.628;2023-10-19T02:25:40;14.90;99.90
35746;DHT22;21870;42.812;74.628;2023-10-19T02:28:07;15.00;99.90
35746;DHT22;21870;42.812;74.628;2023-10-19T02:30:35;15.30;99.90
35746;DHT22;21870;42.812;74.628;2023-10-19T02:33:01;15.40;99.90
35746;DHT22;21870;42.812;74.628;2023-10-19T02:35:29;15.50;99.90
35746;DHT22;21870;42.812;74.628;2023-10-19T02:37:56;15.60;99.90
35746;DHT22;21870;42.812;74.628;2023-10-19T02:40:23;15.70;99.90
35746;DHT22;21870;42.812;74.628;2023-10-19T02:42:50;15.80;99.90
35746;DHT22;21870;42.812;74.628;2023-10-19T02:45:17;15.90;99.90
35746;DHT22;21870;42.812;74.628;2023-10-19T02:47:44;16.00;99.90
35746;DHT22;21870;42.812;74.628;2023-10-19T02:50:11;16.00;99.90
35746;DHT22;21870;42.812;74.628;2023-10-19T02:52:42;16.10;99.90
35746;DHT22;21870;42.812;74.628;2023-10-19T02:55:09;16.30;99.90
35746;DHT22;21870;42.812;74.628;2023-10-19T02:57:36;16.20;99.90
35746;DHT22;21870;42.812;74.628;2023-10-19T03:00:05;16.30;99.90
35746;DHT22;21870;42.812;74.628;2023-10-19T03:02:39;16.50;99.90
35746;DHT22;21870;42.812;74.628;2023-10-19T03:05:06;16.60;99.90
35746;DHT22;21870;42.812;74.628;2023-10-19T03:07:42;16.80;99.90
35746;DHT22;21870;42.812;74.628;2023-10-19T03:10:12;16.90;99.90
35746;DHT22;21870;42.812;74.628;2023-10-19T03:12:50;17.10;99.90
35746;DHT22;21870;42.812;74.628;2023-10-19T03:15:17;17.30;99.90
35746;DHT22;21870;42.812;74.628;2023-10-19T03:17:46;17.50;99.90
35746;DHT22;21870;42.812;74.628;2023-10-19T03:20:14;17.60;99.90
35746;DHT22;21870;42.812;74.628;2023-10-19T03:22:42;17.80;99.90
35746;DHT22;21870;42.812;74.628;2023-10-19T03:25:09;18.00;99.90
35746;DHT22;21870;42.812;74.628;2023-10-19T03:27:54;18.00;99.90
35746;DHT22;21870;42.812;74.628;2023-10-19T03:30:21;18.00;99.90
35746;DHT22;21870;42.812;74.628;2023-10-19T03:32:51;17.90;99.90
35746;DHT22;21870;42.812;74.628;2023-10-19T03:35:17;17.90;99.90
35746;DHT22;21870;42.812;74.628;2023-10-19T03:37:43;18.20;99.90
35746;DHT22;21870;42.812;74.628;2023-10-19T03:40:13;18.50;99.90
35746;DHT22;21870;42.812;74.628;2023-10-19T03:42:45;18.70;99.90
35746;DHT22;21870;42.812;74.628;2023-10-19T03:45:12;18.80;99.90
35746;DHT22;21870;42.812;74.628;2023-10-19T03:47:39;19.10;99.90
35746;DHT22;21870;42.812;74.628;2023-10-19T03:50:09;19.30;99.90
35746;DHT22;21870;42.812;74.628;2023-10-19T03:52:40;19.70;99.90
35746;DHT22;21870;42.812;74.628;2023-10-19T03:55:07;19.90;98.80
35746;DHT22;21870;42.812;74.628;2023-10-19T03:57:48;20.00;99.00
35746;DHT22;21870;42.812;74.628;2023-10-19T04:00:21;20.10;98.50
35746;DHT22;21870;42.812;74.628;2023-10-19T04:02:55;20.30;98.70
35746;DHT22;21870;42.812;74.628;2023-10-19T04:05:22;20.50;97.80
35746;DHT22;21870;42.812;74.628;2023-10-19T04:07:49;20.50;97.50
35746;DHT22;21870;42.812;74.628;2023-10-19T04:10:21;20.70;98.00
35746;DHT22;21870;42.812;74.628;2023-10-19T04:13:04;20.70;98.90
35746;DHT22;21870;42.812;74.628;2023-10-19T04:15:35;20.60;98.40
35746;DHT22;21870;42.812;74.628;2023-10-19T04:18:05;20.70;98.20
35746;DHT22;21870;42.812;74.628;2023-10-19T04:20:35;20.80;96.70
35746;DHT22;21870;42.812;74.628;2023-10-19T04:23:16;20.90;95.80
35746;DHT22;21870;42.812;74.628;2023-10-19T04:25:42;21.00;96.00
35746;DHT22;21870;42.812;74.628;2023-10-19T04:28:08;21.00;94.90
35746;DHT22;21870;42.812;74.628;2023-10-19T04:30:34;21.10;94.30
35746;DHT22;21870;42.812;74.628;2023-10-19T04:33:03;21.30;92.90
35746;DHT22;21870;42.812;74.628;2023-10-19T04:35:30;21.30;92.90
35746;DHT22;21870;42.812;74.628;2023-10-19T04:38:00;21.50;93.10
35746;DHT22;21870;42.812;74.628;2023-10-19T04:40:27;21.70;91.90
35746;DHT22;21870;42.812;74.628;2023-10-19T04:42:53;21.90;92.10
35746;DHT22;21870;42.812;74.628;2023-10-19T04:45:20;22.00;92.10
35746;DHT22;21870;42.812;74.628;2023-10-19T04:47:50;22.10;92.00
35746;DHT22;21870;42.812;74.628;2023-10-19T04:50:18;22.20;91.40
35746;DHT22;21870;42.812;74.628;2023-10-19T04:52:44;22.40;92.50
35746;DHT22;21870;42.812;74.628;2023-10-19T04:55:10;22.60;91.90
35746;DHT22;21870;42.812;74.628;2023-10-19T04:57:36;22.80;92.10
35746;DHT22;21870;42.812;74.628;2023-10-19T05:00:02;22.90;90.70
35746;DHT22;21870;42.812;74.628;2023-10-19T05:02:31;22.70;90.30
35746;DHT22;21870;42.812;74.628;2023-10-19T05:04:57;23.00;89.60
35746;DHT22;21870;42.812;74.628;2023-10-19T05:07:23;23.30;90.90
35746;DHT22;21870;42.812;74.628;2023-10-19T05:09:49;23.30;89.50
35746;DHT22;21870;42.812;74.628;2023-10-19T05:12:15;23.20;89.70
35746;DHT22;21870;42.812;74.628;2023-10-19T05:14:42;23.50;86.20
35746;DHT22;21870;42.812;74.628;2023-10-19T05:17:09;23.50;84.20
35746;DHT22;21870;42.812;74.628;2023-10-19T05:19:36;23.60;84.70
35746;DHT22;21870;42.812;74.628;2023-10-19T05:22:05;23.80;88.40
35746;DHT22;21870;42.812;74.628;2023-10-19T05:24:32;24.00;86.60
35746;DHT22;21870;42.812;74.628;2023-10-19T05:26:58;24.20;89.00
35746;DHT22;21870;42.812;74.628;2023-10-19T05:29:24;24.40;86.00
35746;DHT22;21870;42.812;74.628;2023-10-19T05:31:51;24.50;86.00
35746;DHT22;21870;42.812;74.628;2023-10-19T05:34:28;24.40;87.40
35746;DHT22;21870;42.812;74.628;2023-10-19T05:36:55;24.40;87.20
35746;DHT22;21870;42.812;74.628;2023-10-19T05:39:24;24.50;83.00
35746;DHT22;21870;42.812;74.628;2023-10-19T05:41:56;24.70;79.60
35746;DHT22;21870;42.812;74.628;2023-10-19T05:44:25;24.90;79.60
35746;DHT22;21870;42.812;74.628;2023-10-19T05:46:51;25.10;83.70
35746;DHT22;21870;42.812;74.628;2023-10-19T05:49:17;25.00;78.50
35746;DHT22;21870;42.812;74.628;2023-10-19T05:51:43;25.10;80.10
35746;DHT22;21870;42.812;74.628;2023-10-19T05:54:10;25.40;84.40
35746;DHT22;21870;42.812;74.628;2023-10-19T05:56:38;25.50;87.10
35746;DHT22;21870;42.812;74.628;2023-10-19T05:59:04;25.70;88.10
35746;DHT22;21870;42.812;74.628;2023-10-19T06:01:32;25.40;88.10
35746;DHT22;21870;42.812;74.628;2023-10-19T06:03:58;25.50;88.10
35746;DHT22;21870;42.812;74.628;2023-10-19T06:06:24;25.30;85.70
35746;DHT22;21870;42.812;74.628;2023-10-19T06:08:51;25.50;85.50
35746;DHT22;21870;42.812;74.628;2023-10-19T06:11:20;25.50;85.90
35746;DHT22;21870;42.812;74.628;2023-10-19T06:13:46;25.70;84.90
35746;DHT22;21870;42.812;74.628;2023-10-19T06:16:12;25.40;82.10
35746;DHT22;21870;42.812;74.628;2023-10-19T06:18:38;25.60;82.10
35746;DHT22;21870;42.812;74.628;2023-10-19T06:21:04;25.70;85.90
35746;DHT22;21870;42.812;74.628;2023-10-19T06:23:30;25.80;87.60
35746;DHT22;21870;42.812;74.628;2023-10-19T06:25:57;25.80;83.40
35746;DHT22;21870;42.812;74.628;2023-10-19T06:28:23;25.70;85.30
35746;DHT22;21870;42.812;74.628;2023-10-19T06:30:49;26.10;81.80
35746;DHT22;21870;42.812;74.628;2023-10-19T06:33:16;26.00;86.60
35746;DHT22;21870;42.812;74.628;2023-10-19T06:35:42;25.90;85.00
35746;DHT22;21870;42.812;74.628;2023-10-19T06:38:08;25.90;81.80
35746;DHT22;21870;42.812;74.628;2023-10-19T06:40:35;26.00;84.50
35746;DHT22;21870;42.812;74.628;2023-10-19T06:43:04;26.10;82.90
35746;DHT22;21870;42.812;74.628;2023-10-19T06:45:33;25.90;83.00
35746;DHT22;21870;42.812;74.628;2023-10-19T06:47:59;26.00;82.80
35746;DHT22;21870;42.812;74.628;2023-10-19T06:50:26;26.20;82.30
35746;DHT22;21870;42.812;74.628;2023-10-19T06:52:52;26.10;83.60
35746;DHT22;21870;42.812;74.628;2023-10-19T06:55:20;26.20;82.80
35746;DHT22;21870;42.812;74.628;2023-10-19T06:57:50;26.20;81.90
35746;DHT22;21870;42.812;74.628;2023-10-19T07:00:19;26.50;81.50
35746;DHT22;21870;42.812;74.628;2023-10-19T07:02:46;26.90;79.00
35746;DHT22;21870;42.812;74.628;2023-10-19T07:05:16;26.90;78.80
35746;DHT22;21870;42.812;74.628;2023-10-19T07:07:51;26.80;77.20
35746;DHT22;21870;42.812;74.628;2023-10-19T07:10:22;26.70;79.70
35746;DHT22;21870;42.812;74.628;2023-10-19T07:12:52;26.60;79.10
35746;DHT22;21870;42.812;74.628;2023-10-19T07:15:19;26.60;76.50
35746;DHT22;21870;42.812;74.628;2023-10-19T07:17:48;26.50;75.90
35746;DHT22;21870;42.812;74.628;2023-10-19T07:20:16;26.50;76.30
35746;DHT22;21870;42.812;74.628;2023-10-19T07:23:02;26.40;77.20
35746;DHT22;21870;42.812;74.628;2023-10-19T07:25:47;26.60;74.20
35746;DHT22;21870;42.812;74.628;2023-10-19T07:28:18;26.50;73.60
35746;DHT22;21870;42.812;74.628;2023-10-19T07:30:45;26.80;75.10
35746;DHT22;21870;42.812;74.628;2023-10-19T07:33:12;26.80;75.70
35746;DHT22;21870;42.812;74.628;2023-10-19T07:35:49;26.80;74.80
35746;DHT22;21870;42.812;74.628;2023-10-19T07:38:22;26.70;74.00
35746;DHT22;21870;42.812;74.628;2023-10-19T07:40:49;26.50;74.40
35746;DHT22;21870;42.812;74.628;2023-10-19T07:43:18;26.40;75.00
35746;DHT22;21870;42.812;74.628;2023-10-19T07:45:46;26.50;75.40
35746;DHT22;21870;42.812;74.628;2023-10-19T07:48:13;26.60;73.00
35746;DHT22;21870;42.812;74.628;2023-10-19T07:50:40;26.80;73.10
35746;DHT22;21870;42.812;74.628;2023-10-19T07:53:06;26.70;71.60
35746;DHT22;21870;42.812;74.628;2023-10-19T07:55:32;26.80;72.00
35746;DHT22;21870;42.812;74.628;2023-10-19T07:57:59;27.00;71.40
35746;DHT22;21870;42.812;74.628;2023-10-19T08:00:32;27.10;71.00
35746;DHT22;21870;42.812;74.628;2023-10-19T08:03:01;27.10;70.40
35746;DHT22;21870;42.812;74.628;2023-10-19T08:05:28;27.00;71.50
35746;DHT22;21870;42.812;74.628;2023-10-19T08:07:54;27.10;72.40
35746;DHT22;21870;42.812;74.628;2023-10-19T08:10:22;27.00;69.50
35746;DHT22;21870;42.812;74.628;2023-10-19T08:12:49;27.10;69.50
35746;DHT22;21870;42.812;74.628;2023-10-19T08:15:16;27.10;68.90
35746;DHT22;21870;42.812;74.628;2023-10-19T08:17:45;27.10;69.20
35746;DHT22;21870;42.812;74.628;2023-10-19T08:20:14;27.10;69.80
35746;DHT22;21870;42.812;74.628;2023-10-19T08:22:59;27.30;72.00
35746;DHT22;21870;42.812;74.628;2023-10-19T08:25:27;27.20;72.70
35746;DHT22;21870;42.812;74.628;2023-10-19T08:27:53;27.20;68.20
35746;DHT22;21870;42.812;74.628;2023-10-19T08:30:23;27.10;69.20
35746;DHT22;21870;42.812;74.628;2023-10-19T08:32:51;27.50;68.90
35746;DHT22;21870;42.812;74.628;2023-10-19T08:35:19;27.40;67.90
35746;DHT22;21870;42.812;74.628;2023-10-19T08:37:50;27.30;65.60
35746;DHT22;21870;42.812;74.628;2023-10-19T08:40:16;27.40;66.90
35746;DHT22;21870;42.812;74.628;2023-10-19T08:42:44;27.40;66.50
35746;DHT22;21870;42.812;74.628;2023-10-19T08:45:12;27.30;65.80
35746;DHT22;21870;42.812;74.628;2023-10-19T08:47:59;27.30;67.30
35746;DHT22;21870;42.812;74.628;2023-10-19T08:50:28;27.40;67.80
35746;DHT22;21870;42.812;74.628;2023-10-19T08:52:56;27.30;67.10
35746;DHT22;21870;42.812;74.628;2023-10-19T08:55:22;27.40;66.90
35746;DHT22;21870;42.812;74.628;2023-10-19T08:57:49;27.60;65.60
35746;DHT22;21870;42.812;74.628;2023-10-19T09:00:16;27.70;67.70
35746;DHT22;21870;42.812;74.628;2023-10-19T09:02:52;27.60;67.20
35746;DHT22;21870;42.812;74.628;2023-10-19T09:05:18;27.50;65.70
35746;DHT22;21870;42.812;74.628;2023-10-19T09:07:52;27.20;66.90
35746;DHT22;21870;42.812;74.628;2023-10-19T09:10:26;27.30;69.90
35746;DHT22;21870;42.812;74.628;2023-10-19T09:13:05;27.30;67.80
35746;DHT22;21870;42.812;74.628;2023-10-19T09:15:36;27.40;66.80
35746;DHT22;21870;42.812;74.628;2023-10-19T09:18:20;27.30;66.70
35746;DHT22;21870;42.812;74.628;2023-10-19T09:20:48;27.40;63.10
35746;DHT22;21870;42.812;74.628;2023-10-19T09:23:27;27.30;65.60
35746;DHT22;21870;42.812;74.628;2023-10-19T09:25:58;27.10;67.20
35746;DHT22;21870;42.812;74.628;2023-10-19T09:28:28;27.10;68.80
35746;DHT22;21870;42.812;74.628;2023-10-19T09:30:55;27.20;67.40
35746;DHT22;21870;42.812;74.628;2023-10-19T09:33:22;27.20;69.00
35746;DHT22;21870;42.812;74.628;2023-10-19T09:35:50;27.30;66.90
35746;DHT22;21870;42.812;74.628;2023-10-19T09:38:22;27.40;67.40
35746;DHT22;21870;42.812;74.628;2023-10-19T09:40:49;27.20;68.00
35746;DHT22;21870;42.812;74.628;2023-10-19T09:44:05;26.90;66.80
35746;DHT22;21870;42.812;74.628;2023-10-19T09:46:10;26.90;66.90
35746;DHT22;21870;42.812;74.628;2023-10-19T09:48:42;26.80;68.10
35746;DHT22;21870;42.812;74.628;2023-10-19T09:51:08;26.60;68.50
35746;DHT22;21870;42.812;74.628;2023-10-19T09:53:36;26.60;69.00
35746;DHT22;21870;42.812;74.628;2023-10-19T09:56:05;26.60;68.20
35746;DHT22;21870;42.812;74.628;2023-10-19T09:58:39;26.50;66.00
35746;DHT22;21870;42.812;74.628;2023-10-19T10:01:09;26.50;67.80
35746;DHT22;21870;42.812;74.628;2023-10-19T10:03:43;26.70;68.20
35746;DHT22;21870;42.812;74.628;2023-10-19T10:06:10;26.70;68.10
35746;DHT22;21870;42.812;74.628;2023-10-19T10:08:39;26.70;66.50
35746;DHT22;21870;42.812;74.628;2023-10-19T10:11:34;26.70;66.90
35746;DHT22;21870;42.812;74.628;2023-10-19T10:14:00;26.70;69.10
35746;DHT22;21870;42.812;74.628;2023-10-19T10:16:27;26.60;70.50
35746;DHT22;21870;42.812;74.628;2023-10-19T10:18:58;26.50;68.90
35746;DHT22;21870;42.812;74.628;2023-10-19T10:21:26;26.60;69.30
35746;DHT22;21870;42.812;74.628;2023-10-19T10:23:57;26.50;67.60
35746;DHT22;21870;42.812;74.628;2023-10-19T10:26:31;26.50;68.40
35746;DHT22;21870;42.812;74.628;2023-10-19T10:29:21;26.50;68.20
35746;DHT22;21870;42.812;74.628;2023-10-19T10:31:50;26.10;68.10
35746;DHT22;21870;42.812;74.628;2023-10-19T10:37:04;26.10;69.30
35746;DHT22;21870;42.812;74.628;2023-10-19T10:39:34;26.30;69.00
35746;DHT22;21870;42.812;74.628;2023-10-19T10:42:05;26.20;70.50
35746;DHT22;21870;42.812;74.628;2023-10-19T10:44:41;26.30;69.70
35746;DHT22;21870;42.812;74.628;2023-10-19T10:47:12;26.20;68.60
35746;DHT22;21870;42.812;74.628;2023-10-19T10:49:55;25.90;69.60
35746;DHT22;21870;42.812;74.628;2023-10-19T10:55:14;25.90;71.00
35746;DHT22;21870;42.812;74.628;2023-10-19T10:57:42;25.80;71.40
35746;DHT22;21870;42.812;74.628;2023-10-19T11:00:13;25.80;71.20
35746;DHT22;21870;42.812;74.628;2023-10-19T11:02:45;25.70;71.20
35746;DHT22;21870;42.812;74.628;2023-10-19T11:05:13;25.50;71.10
35746;DHT22;21870;42.812;74.628;2023-10-19T11:10:32;25.20;71.70
35746;DHT22;21870;42.812;74.628;2023-10-19T11:13:02;25.20;72.90
35746;DHT22;21870;42.812;74.628;2023-10-19T11:15:28;25.10;72.40
35746;DHT22;21870;42.812;74.628;2023-10-19T11:17:55;24.90;73.40
35746;DHT22;21870;42.812;74.628;2023-10-19T11:20:23;24.90;73.00
35746;DHT22;21870;42.812;74.628;2023-10-19T11:22:52;24.90;72.50
35746;DHT22;21870;42.812;74.628;2023-10-19T11:27:48;24.70;71.80
35746;DHT22;21870;42.812;74.628;2023-10-19T11:30:23;24.60;74.50
35746;DHT22;21870;42.812;74.628;2023-10-19T11:32:49;24.50;74.20
35746;DHT22;21870;42.812;74.628;2023-10-19T11:35:19;24.30;75.20
35746;DHT22;21870;42.812;74.628;2023-10-19T11:37:52;24.10;75.60
35746;DHT22;21870;42.812;74.628;2023-10-19T11:40:22;23.90;75.90
35746;DHT22;21870;42.812;74.628;2023-10-19T11:42:49;23.70;76.10
35746;DHT22;21870;42.812;74.628;2023-10-19T11:45:17;23.60;76.20
35746;DHT22;21870;42.812;74.628;2023-10-19T11:47:44;23.30;76.30
35746;DHT22;21870;42.812;74.628;2023-10-19T11:50:11;23.10;77.00
35746;DHT22;21870;42.812;74.628;2023-10-19T11:52:42;23.00;77.30
35746;DHT22;21870;42.812;74.628;2023-10-19T11:55:08;22.90;77.60
35746;DHT22;21870;42.812;74.628;2023-10-19T11:57:35;22.70;78.10
35746;DHT22;21870;42.812;74.628;2023-10-19T12:00:03;22.60;81.40
35746;DHT22;21870;42.812;74.628;2023-10-19T12:02:35;22.30;82.90
35746;DHT22;21870;42.812;74.628;2023-10-19T12:05:04;22.00;81.20
35746;DHT22;21870;42.812;74.628;2023-10-19T12:07:36;21.90;81.80
35746;DHT22;21870;42.812;74.628;2023-10-19T12:10:02;21.70;80.80
35746;DHT22;21870;42.812;74.628;2023-10-19T12:12:29;21.60;80.80
35746;DHT22;21870;42.812;74.628;2023-10-19T12:14:58;21.40;80.90
35746;DHT22;21870;42.812;74.628;2023-10-19T12:17:26;21.30;81.30
35746;DHT22;21870;42.812;74.628;2023-10-19T12:19:53;21.10;81.70
35746;DHT22;21870;42.812;74.628;2023-10-19T12:22:20;20.90;82.20
35746;DHT22;21870;42.812;74.628;2023-10-19T12:24:47;20.80;82.50
35746;DHT22;21870;42.812;74.628;2023-10-19T12:27:16;20.70;84.20
35746;DHT22;21870;42.812;74.628;2023-10-19T12:29:43;20.50;85.90
35746;DHT22;21870;42.812;74.628;2023-10-19T12:32:09;20.30;87.80
35746;DHT22;21870;42.812;74.628;2023-10-19T12:34:35;20.10;88.70
35746;DHT22;21870;42.812;74.628;2023-10-19T12:37:01;19.90;90.10
35746;DHT22;21870;42.812;74.628;2023-10-19T12:39:29;19.70;90.30
35746;DHT22;21870;42.812;74.628;2023-10-19T12:42:21;19.50;88.70
35746;DHT22;21870;42.812;74.628;2023-10-19T12:44:48;19.50;87.50
35746;DHT22;21870;42.812;74.628;2023-10-19T12:47:14;19.40;89.00
35746;DHT22;21870;42.812;74.628;2023-10-19T12:49:42;19.30;87.60
35746;DHT22;21870;42.812;74.628;2023-10-19T12:52:10;19.20;89.20
35746;DHT22;21870;42.812;74.628;2023-10-19T12:54:37;19.20;88.40
35746;DHT22;21870;42.812;74.628;2023-10-19T12:57:04;19.20;88.60
35746;DHT22;21870;42.812;74.628;2023-10-19T12:59:34;19.00;90.00
35746;DHT22;21870;42.812;74.628;2023-10-19T13:02:03;18.90;89.60
35746;DHT22;21870;42.812;74.628;2023-10-19T13:04:30;18.70;89.60
35746;DHT22;21870;42.812;74.628;2023-10-19T13:06:59;18.70;89.80
35746;DHT22;21870;42.812;74.628;2023-10-19T13:09:26;18.60;89.70
35746;DHT22;21870;42.812;74.628;2023-10-19T13:11:59;18.50;89.90
35746;DHT22;21870;42.812;74.628;2023-10-19T13:14:26;18.20;90.20
35746;DHT22;21870;42.812;74.628;2023-10-19T13:16:53;18.10;90.50
35746;DHT22;21870;42.812;74.628;2023-10-19T13:19:21;18.00;90.70
35746;DHT22;21870;42.812;74.628;2023-10-19T13:21:51;17.60;91.10
35746;DHT22;21870;42.812;74.628;2023-10-19T13:24:18;17.40;91.40
35746;DHT22;21870;42.812;74.628;2023-10-19T13:26:48;17.10;91.70
35746;DHT22;21870;42.812;74.628;2023-10-19T13:29:14;17.00;92.00
35746;DHT22;21870;42.812;74.628;2023-10-19T13:31:41;16.80;92.10
35746;DHT22;21870;42.812;74.628;2023-10-19T13:34:15;16.70;92.30
35746;DHT22;21870;42.812;74.628;2023-10-19T13:36:41;16.50;92.60
35746;DHT22;21870;42.812;74.628;2023-10-19T13:39:09;16.40;92.80
35746;DHT22;21870;42.812;74.628;2023-10-19T13:41:39;16.40;92.80
35746;DHT22;21870;42.812;74.628;2023-10-19T13:44:05;16.40;92.90
35746;DHT22;21870;42.812;74.628;2023-10-19T13:46:31;16.30;92.90
35746;DHT22;21870;42.812;74.628;2023-10-19T13:48:57;16.30;93.00
35746;DHT22;21870;42.812;74.628;2023-10-19T13:51:24;16.30;93.10
35746;DHT22;21870;42.812;74.628;2023-10-19T13:53:51;16.30;93.00
35746;DHT22;21870;42.812;74.628;2023-10-19T13:56:17;16.20;93.10
35746;DHT22;21870;42.812;74.628;2023-10-19T13:58:43;16.10;93.30
35746;DHT22;21870;42.812;74.628;2023-10-19T14:01:12;16.10;93.50
35746;DHT22;21870;42.812;74.628;2023-10-19T14:03:38;16.00;93.70
35746;DHT22;21870;42.812;74.628;2023-10-19T14:06:04;16.00;94.00
35746;DHT22;21870;42.812;74.628;2023-10-19T14:08:31;15.80;94.20
35746;DHT22;21870;42.812;74.628;2023-10-19T14:11:03;15.80;94.40
35746;DHT22;21870;42.812;74.628;2023-10-19T14:13:29;15.70;94.60
35746;DHT22;21870;42.812;74.628;2023-10-19T14:15:55;15.70;94.80
35746;DHT22;21870;42.812;74.628;2023-10-19T14:18:21;15.70;95.00
35746;DHT22;21870;42.812;74.628;2023-10-19T14:20:48;15.70;95.10
35746;DHT22;21870;42.812;74.628;2023-10-19T14:23:14;15.70;95.30
35746;DHT22;21870;42.812;74.628;2023-10-19T14:25:40;15.60;95.60
35746;DHT22;21870;42.812;74.628;2023-10-19T14:28:08;15.60;95.60
35746;DHT22;21870;42.812;74.628;2023-10-19T14:30:35;15.60;95.80
35746;DHT22;21870;42.812;74.628;2023-10-19T14:33:02;15.60;95.90
35746;DHT22;21870;42.812;74.628;2023-10-19T14:35:28;15.50;96.10
35746;DHT22;21870;42.812;74.628;2023-10-19T14:37:55;15.50;96.40
35746;DHT22;21870;42.812;74.628;2023-10-19T14:40:24;15.40;96.60
35746;DHT22;21870;42.812;74.628;2023-10-19T14:42:52;15.40;96.80
35746;DHT22;21870;42.812;74.628;2023-10-19T14:45:21;15.40;97.00
35746;DHT22;21870;42.812;74.628;2023-10-19T14:47:56;15.40;97.30
35746;DHT22;21870;42.812;74.628;2023-10-19T14:50:24;15.30;97.50
35746;DHT22;21870;42.812;74.628;2023-10-19T14:52:51;15.20;97.70
35746;DHT22;21870;42.812;74.628;2023-10-19T14:55:17;15.20;97.90
35746;DHT22;21870;42.812;74.628;2023-10-19T14:57:45;15.20;98.00
35746;DHT22;21870;42.812;74.628;2023-10-19T15:00:14;15.20;97.90
35746;DHT22;21870;42.812;74.628;2023-10-19T15:02:51;15.30;98.20
35746;DHT22;21870;42.812;74.628;2023-10-19T15:05:20;15.20;98.10
35746;DHT22;21870;42.812;74.628;2023-10-19T15:07:48;15.30;98.10
35746;DHT22;21870;42.812;74.628;2023-10-19T15:10:27;15.30;98.20
35746;DHT22;21870;42.812;74.628;2023-10-19T15:12:54;15.40;98.20
35746;DHT22;21870;42.812;74.628;2023-10-19T15:15:25;15.30;98.30
35746;DHT22;21870;42.812;74.628;2023-10-19T15:17:51;15.30;98.40
35746;DHT22;21870;42.812;74.628;2023-10-19T15:20:30;15.30;98.40
35746;DHT22;21870;42.812;74.628;2023-10-19T15:22:57;15.30;98.60
35746;DHT22;21870;42.812;74.628;2023-10-19T15:25:23;15.30;98.60
35746;DHT22;21870;42.812;74.628;2023-10-19T15:27:53;15.30;98.90
35746;DHT22;21870;42.812;74.628;2023-10-19T15:30:20;15.30;99.00
35746;DHT22;21870;42.812;74.628;2023-10-19T15:32:48;15.20;99.20
35746;DHT22;21870;42.812;74.628;2023-10-19T15:35:15;15.20;99.40
35746;DHT22;21870;42.812;74.628;2023-10-19T15:37:47;15.20;99.60
35746;DHT22;21870;42.812;74.628;2023-10-19T15:40:15;15.20;99.80
35746;DHT22;21870;42.812;74.628;2023-10-19T15:42:42;15.20;99.80